»·PEaware :: N915MM KBJC-KBJC

N915MM :: KBJC-KBJC

FLIGHT INFORMATION

Flight Status: Arrived
Operator: Privately registered:
United States
More flights under this callsign
Pilot: Tyler S. (27221)
Aircraft: SOCATA TBM-900
(TBM9)
More flights by this aircraft type
Origin: KBJC Jeffco
United States
Destination: KBJC Jeffco
United States
More flights between these airports :: More routes between these airports
Route: YELLO4 CYS BARGR GLL
File this flight plan on PilotEdge
Remarks:
Altitude:
(Current/Filed)
28,000ft
Speed:
(Current/Filed)
300kts
Departed: 16-Aug-20 04:14 PM
Arrived: 16-Aug-20 05:42 PM
Distance/Time
Traveled:
0nm/1:27
Distance/Time
To Go:
Arrived

Flight Plot

Page will automatically refresh every two minutes.

Flight plan parsing failed; only flown route is shown


Map Options




Map Legend


Flown Route
Filed Route
Departure Airport
Arrival Airport
Navaid (VOR, NDB)
Fix

Horizontal Profiles

Position Reports

Time Latitude Longitude Heading Altitude Ground
Speed
16-Aug-20 14:57 39.908417 -105.110953 302 5672ft 0kts
16-Aug-20 14:58 39.908417 -105.110953 302 5672ft 0kts
16-Aug-20 14:59 39.908417 -105.110953 302 5672ft 0kts
16-Aug-20 15:00 39.908417 -105.110953 302 5672ft 0kts
16-Aug-20 15:01 39.908417 -105.110953 302 5672ft 0kts
16-Aug-20 15:02 39.908417 -105.110953 302 5672ft 0kts
16-Aug-20 15:03 39.908417 -105.110953 302 5672ft 0kts
16-Aug-20 15:04 39.908417 -105.110953 302 5672ft 0kts
16-Aug-20 15:05 39.908417 -105.110953 302 5672ft 0kts
16-Aug-20 15:06 39.908417 -105.110953 302 5672ft 0kts
16-Aug-20 15:07 39.908417 -105.110953 302 5672ft 0kts
16-Aug-20 15:08 39.908417 -105.110953 302 5672ft 0kts
16-Aug-20 15:09 39.908417 -105.110953 302 5672ft 0kts
16-Aug-20 15:10 39.908417 -105.110953 302 5672ft 0kts
16-Aug-20 15:11 39.908417 -105.110953 302 5672ft 0kts
16-Aug-20 15:12 39.908417 -105.110953 302 5672ft 0kts
16-Aug-20 15:13 39.908417 -105.110953 302 5672ft 0kts
16-Aug-20 15:14 39.908417 -105.110953 302 5672ft 0kts
16-Aug-20 15:15 39.908417 -105.110953 302 5672ft 0kts
16-Aug-20 15:16 39.908417 -105.110953 302 5672ft 0kts
16-Aug-20 15:17 39.908417 -105.110953 302 5672ft 0kts
16-Aug-20 15:18 39.908417 -105.110953 302 5672ft 0kts
16-Aug-20 15:19 39.908417 -105.110953 302 5672ft 0kts
16-Aug-20 15:20 39.908417 -105.110953 302 5672ft 0kts
16-Aug-20 15:21 39.908417 -105.110953 302 5672ft 0kts
16-Aug-20 15:22 39.908417 -105.110953 302 5672ft 0kts
16-Aug-20 15:23 39.908417 -105.110953 302 5672ft 0kts
16-Aug-20 15:24 39.908417 -105.110953 302 5672ft 0kts
16-Aug-20 15:25 39.908417 -105.110953 302 5672ft 0kts
16-Aug-20 15:26 39.908417 -105.110953 302 5672ft 0kts
16-Aug-20 15:27 39.908417 -105.110953 302 5672ft 0kts
16-Aug-20 15:28 39.908417 -105.110953 302 5672ft 0kts
16-Aug-20 15:29 39.908417 -105.110953 302 5672ft 0kts
16-Aug-20 15:30 39.908417 -105.110953 302 5672ft 0kts
16-Aug-20 15:32 39.908417 -105.110953 302 5672ft 0kts
16-Aug-20 15:33 39.908417 -105.110953 302 5672ft 0kts
16-Aug-20 15:34 39.908417 -105.110953 302 5672ft 0kts
16-Aug-20 15:35 39.908417 -105.110953 302 5672ft 0kts
16-Aug-20 15:36 39.908417 -105.110953 302 5672ft 0kts
16-Aug-20 15:37 39.908417 -105.110953 302 5672ft 0kts
16-Aug-20 15:38 39.908417 -105.110953 302 5672ft 0kts
16-Aug-20 15:39 39.908417 -105.110953 302 5672ft 0kts
16-Aug-20 15:40 39.908417 -105.110953 302 5672ft 0kts
16-Aug-20 15:41 39.908417 -105.110953 302 5672ft 0kts
16-Aug-20 15:42 39.908417 -105.110953 302 5672ft 0kts
16-Aug-20 15:43 39.908417 -105.110953 302 5672ft 0kts
16-Aug-20 15:44 39.908417 -105.110954 302 5672ft 0kts
16-Aug-20 15:45 39.908417 -105.110953 302 5672ft 0kts
16-Aug-20 15:46 39.908417 -105.110953 302 5672ft 0kts
16-Aug-20 15:46 39.908417 -105.110953 302 5672ft 0kts
16-Aug-20 15:48 39.908417 -105.110953 302 5672ft 0kts
16-Aug-20 15:49 39.908417 -105.110953 302 5672ft 0kts
16-Aug-20 15:49 39.908417 -105.110953 302 5672ft 0kts
16-Aug-20 15:50 39.908417 -105.110953 302 5672ft 0kts
16-Aug-20 15:51 39.908417 -105.110953 302 5672ft 0kts
16-Aug-20 15:53 39.908417 -105.110953 302 5672ft 0kts
16-Aug-20 15:53 39.908417 -105.110953 302 5672ft 0kts
16-Aug-20 15:54 39.908417 -105.110953 302 5672ft 0kts
16-Aug-20 15:55 39.908417 -105.110953 302 5672ft 0kts
16-Aug-20 15:56 39.908417 -105.110953 302 5672ft 0kts
16-Aug-20 15:57 39.908417 -105.110953 302 5672ft 0kts
16-Aug-20 15:58 39.908417 -105.110953 302 5672ft 0kts
16-Aug-20 15:59 39.908417 -105.110953 302 5672ft 0kts
16-Aug-20 16:00 39.908417 -105.110953 302 5672ft 0kts
16-Aug-20 16:01 39.908001 -105.111665 190 5672ft 7kts
16-Aug-20 16:02 39.905920 -105.108034 124 5672ft 12kts
16-Aug-20 16:03 39.904227 -105.104816 125 5672ft 9kts
16-Aug-20 16:04 39.902659 -105.101007 204 5672ft 4kts
16-Aug-20 16:05 39.902652 -105.101012 204 5672ft 0kts
16-Aug-20 16:06 39.902652 -105.101012 204 5672ft 0kts
16-Aug-20 16:07 39.902652 -105.101012 204 5672ft 0kts
16-Aug-20 16:08 39.902652 -105.101012 204 5672ft 0kts
16-Aug-20 16:09 39.902652 -105.101012 204 5672ft 0kts
16-Aug-20 16:10 39.902249 -105.101285 213 5672ft 0kts
16-Aug-20 16:11 39.902249 -105.101285 213 5672ft 0kts
16-Aug-20 16:12 39.901507 -105.102195 303 5672ft 0kts
16-Aug-20 16:13 39.909103 -105.116817 306 5735ft 129kts
16-Aug-20 16:14 39.941811 -105.138862 358 7689ft 154kts
16-Aug-20 16:15 39.986247 -105.141842 358 10058ft 161kts
16-Aug-20 16:16 40.030690 -105.145165 357 12474ft 152kts
16-Aug-20 16:17 40.075757 -105.145535 358 14762ft 163kts
16-Aug-20 16:18 40.121755 -105.140771 19 16972ft 175kts
16-Aug-20 16:19 40.168170 -105.113413 19 19260ft 183kts
16-Aug-20 16:20 40.215346 -105.085475 19 21594ft 186kts
16-Aug-20 16:21 40.264925 -105.056101 20 23339ft 216kts
16-Aug-20 16:22 40.326988 -105.019151 20 24425ft 221kts
16-Aug-20 16:23 40.378629 -104.988415 19 26749ft 197kts
16-Aug-20 16:24 40.430442 -104.957506 19 28228ft 206kts
16-Aug-20 16:25 40.491520 -104.921091 20 28336ft 259kts
16-Aug-20 16:26 40.561663 -104.879072 20 28331ft 284kts
16-Aug-20 16:27 40.637379 -104.833617 20 28324ft 298kts
16-Aug-20 16:28 40.715010 -104.786900 20 28328ft 302kts
16-Aug-20 16:29 40.793314 -104.742140 9 28334ft 301kts
16-Aug-20 16:30 40.877008 -104.745643 353 28338ft 298kts
16-Aug-20 16:31 40.961799 -104.752307 353 28338ft 299kts
16-Aug-20 16:32 41.046592 -104.758544 353 28337ft 299kts
16-Aug-20 16:33 41.129942 -104.764616 353 28341ft 299kts
16-Aug-20 16:34 41.215433 -104.770782 353 28340ft 300kts
16-Aug-20 16:35 41.300704 -104.776867 353 28336ft 300kts
16-Aug-20 16:36 41.386087 -104.783126 353 28307ft 301kts
16-Aug-20 16:37 41.462678 -104.815470 312 28281ft 279kts
16-Aug-20 16:38 41.477256 -104.912862 251 28292ft 278kts
16-Aug-20 16:39 41.418361 -104.979704 197 28331ft 290kts
16-Aug-20 16:40 41.336176 -104.992188 191 28363ft 290kts
16-Aug-20 16:41 41.258653 -105.007721 192 28358ft 253kts
16-Aug-20 16:42 41.191333 -105.021421 192 28393ft 232kts
16-Aug-20 16:43 41.124315 -105.034957 191 27989ft 274kts
16-Aug-20 16:44 41.024869 -105.052651 188 21402ft 381kts
16-Aug-20 16:45 40.935156 -105.073063 191 19458ft 281kts
16-Aug-20 16:46 40.865330 -105.053955 133 16872ft 278kts
16-Aug-20 16:47 40.815566 -104.984228 133 16372ft 237kts
16-Aug-20 16:48 40.770471 -104.922116 144 16337ft 227kts
16-Aug-20 16:49 40.739790 -104.962244 306 15036ft 198kts
16-Aug-20 16:50 40.771605 -105.018841 307 14463ft 171kts
16-Aug-20 16:51 40.799374 -105.057660 314 13729ft 122kts
16-Aug-20 16:52 40.830674 -105.101544 314 12185ft 187kts
16-Aug-20 16:53 40.872035 -105.100151 86 10445ft 211kts
16-Aug-20 16:54 40.866008 -105.035965 96 10374ft 147kts
16-Aug-20 16:55 40.860648 -104.985408 96 10387ft 133kts
16-Aug-20 16:56 40.855267 -104.934466 96 10371ft 141kts
16-Aug-20 16:57 40.849929 -104.884233 97 10270ft 109kts
16-Aug-20 16:58 40.845214 -104.837970 81 10343ft 135kts
16-Aug-20 16:59 40.874423 -104.819113 10 10317ft 103kts
16-Aug-20 17:00 40.902418 -104.812352 10 10331ft 96kts
16-Aug-20 17:01 40.928488 -104.806047 10 10187ft 80kts
16-Aug-20 17:02 40.952354 -104.795454 4 9667ft 124kts
16-Aug-20 17:03 40.967696 -104.845079 253 10430ft 197kts
16-Aug-20 17:04 40.946750 -104.910386 247 11472ft 188kts
16-Aug-20 17:05 40.924486 -104.974962 248 12485ft 189kts
16-Aug-20 17:06 40.901329 -105.041055 248 13520ft 191kts
16-Aug-20 17:07 40.878187 -105.107178 248 14545ft 192kts
16-Aug-20 17:08 40.855583 -105.171505 248 15540ft 191kts
16-Aug-20 17:09 40.830170 -105.237743 219 15930ft 214kts
16-Aug-20 17:10 40.793588 -105.191846 91 15898ft 235kts
16-Aug-20 17:11 40.789395 -105.104137 91 13374ft 233kts
16-Aug-20 17:12 40.785310 -105.019222 91 10830ft 224kts
16-Aug-20 17:13 40.782811 -104.941759 91 10355ft 199kts
16-Aug-20 17:14 40.780497 -104.869172 90 10334ft 193kts
16-Aug-20 17:15 40.778518 -104.797665 90 10340ft 195kts
16-Aug-20 17:16 40.776426 -104.718558 90 10348ft 228kts
16-Aug-20 17:17 40.774396 -104.639989 90 10319ft 195kts
16-Aug-20 17:18 40.772591 -104.569938 90 10332ft 185kts
16-Aug-20 17:19 40.767648 -104.506431 131 10299ft 162kts
16-Aug-20 17:20 40.741393 -104.532680 265 10362ft 170kts
16-Aug-20 17:21 40.737164 -104.599219 265 10333ft 184kts
16-Aug-20 17:22 40.732905 -104.667525 265 10330ft 183kts
16-Aug-20 17:23 40.728654 -104.735776 265 10330ft 183kts
16-Aug-20 17:24 40.724479 -104.803660 265 10329ft 183kts
16-Aug-20 17:26 40.716062 -104.871194 196 9880ft 192kts
16-Aug-20 17:27 40.661918 -104.856711 177 9369ft 216kts
16-Aug-20 17:28 40.601498 -104.858942 202 8962ft 208kts
16-Aug-20 17:29 40.549763 -104.890628 202 8996ft 197kts
16-Aug-20 17:30 40.494700 -104.924310 202 9002ft 226kts
16-Aug-20 17:31 40.435706 -104.960225 202 8994ft 236kts
16-Aug-20 17:32 40.372811 -104.998340 203 8988ft 249kts
16-Aug-20 17:33 40.308519 -105.037163 203 8982ft 251kts
16-Aug-20 17:34 40.239823 -105.064344 188 8507ft 262kts
16-Aug-20 17:35 40.167917 -105.079284 179 8488ft 252kts
16-Aug-20 17:36 40.096622 -105.076476 177 8499ft 250kts
16-Aug-20 17:37 40.028220 -105.073749 177 7866ft 230kts
16-Aug-20 17:38 39.969720 -105.071141 177 7475ft 181kts
16-Aug-20 17:39 39.919166 -105.068720 177 7044ft 183kts
16-Aug-20 17:40 39.887234 -105.080653 292 6462ft 99kts
16-Aug-20 17:41 39.903508 -105.105973 303 5672ft 71kts
16-Aug-20 17:41 39.908386 -105.112786 114 5672ft 8kts
16-Aug-20 17:43 39.908707 -105.111558 304 5672ft 0kts
16-Aug-20 17:44 39.908707 -105.111558 304 5672ft 0kts
16-Aug-20 17:44 39.908707 -105.111558 304 5672ft 0kts
16-Aug-20 17:46 39.908707 -105.111558 304 5672ft 0kts
16-Aug-20 17:47 39.908707 -105.111558 304 5672ft 0kts
16-Aug-20 17:47 39.908707 -105.111558 304 5672ft 0kts
16-Aug-20 17:48 39.908707 -105.111558 304 5672ft 0kts
16-Aug-20 17:49 39.908707 -105.111558 304 5672ft 0kts

Navigation Log

Ident Type
Flight plan parsing failed, navigation log unavailable